createdAt,value
2023-05-04T00:02:09.664Z,3.45
2023-05-04T00:04:36.859Z,3.67
2023-05-04T00:07:04.096Z,3.35
2023-05-04T00:09:32.366Z,3.30
2023-05-04T00:12:00.216Z,3.65
2023-05-04T00:14:27.714Z,3.50
2023-05-04T00:16:55.032Z,3.45
2023-05-04T00:19:22.952Z,3.20
2023-05-04T00:21:50.479Z,3.17
2023-05-04T00:24:17.673Z,4.47
2023-05-04T00:26:46.045Z,7.65
2023-05-04T00:29:13.506Z,5.75
2023-05-04T00:31:41.155Z,6.18
2023-05-04T00:34:09.073Z,5.88
2023-05-04T00:36:36.667Z,4.60
2023-05-04T00:39:04.311Z,4.10
2023-05-04T00:41:31.562Z,4.43
2023-05-04T00:44:02.890Z,4.10
2023-05-04T00:46:31.383Z,3.80
2023-05-04T00:49:00.116Z,3.65
2023-05-04T00:51:27.428Z,3.60
2023-05-04T00:53:56.183Z,3.88
2023-05-04T00:56:25.166Z,3.63
2023-05-04T00:58:58.945Z,3.70
2023-05-04T01:01:27.559Z,4.35
2023-05-04T01:03:57.850Z,3.85
2023-05-04T01:07:06.373Z,4.22
2023-05-04T01:09:46.614Z,3.72
2023-05-04T01:12:23.795Z,4.72
2023-05-04T01:14:54.432Z,4.15
2023-05-04T01:17:22.525Z,4.38
2023-05-04T01:19:51.307Z,4.25
2023-05-04T01:22:18.538Z,4.47
2023-05-04T01:24:46.978Z,3.92
2023-05-04T01:27:28.605Z,4.57
2023-05-04T01:30:14.295Z,4.88
2023-05-04T01:32:45.931Z,4.22
2023-05-04T01:35:14.428Z,4.63
2023-05-04T01:37:42.183Z,4.72
2023-05-04T01:40:10.223Z,4.88
2023-05-04T01:42:38.023Z,4.80
2023-05-04T01:45:06.429Z,4.90
2023-05-04T01:47:33.923Z,4.97
2023-05-04T01:50:01.915Z,4.97
2023-05-04T01:52:31.011Z,5.60
2023-05-04T01:54:58.363Z,5.07
2023-05-04T01:57:26.061Z,5.30
2023-05-04T01:59:53.541Z,5.22
2023-05-04T02:02:21.173Z,5.18
2023-05-04T02:04:48.339Z,6.18
2023-05-04T02:07:15.693Z,6.25
2023-05-04T02:09:43.989Z,6.22
2023-05-04T02:12:11.422Z,6.35
2023-05-04T02:14:39.488Z,5.90
2023-05-04T02:17:07.975Z,6.85
2023-05-04T02:19:37.980Z,7.35
2023-05-04T02:22:05.922Z,6.28
2023-05-04T02:24:36.284Z,7.88
2023-05-04T02:27:03.729Z,7.50
2023-05-04T02:29:31.238Z,7.45
2023-05-04T02:31:59.858Z,7.75
2023-05-04T02:34:27.847Z,7.57
2023-05-04T02:36:55.214Z,7.45
2023-05-04T02:39:23.154Z,8.23
2023-05-04T02:41:50.988Z,7.53
2023-05-04T02:44:20.857Z,8.07
2023-05-04T02:46:48.425Z,6.93
2023-05-04T02:49:16.028Z,7.80
2023-05-04T02:51:43.398Z,8.35
2023-05-04T02:54:13.543Z,7.80
2023-05-04T02:56:45.431Z,7.80
2023-05-04T02:59:13.672Z,8.05
2023-05-04T03:01:41.122Z,8.00
2023-05-04T03:04:08.759Z,7.95
2023-05-04T03:06:36.658Z,7.60
2023-05-04T03:09:04.964Z,7.90
2023-05-04T03:11:32.533Z,8.45
2023-05-04T03:14:00.040Z,8.30
2023-05-04T03:16:28.379Z,8.43
2023-05-04T03:18:58.919Z,7.95
2023-05-04T03:21:26.832Z,7.50
2023-05-04T03:23:54.383Z,7.82
2023-05-04T03:26:21.827Z,8.00
2023-05-04T03:28:50.448Z,7.72
2023-05-04T03:31:18.023Z,7.68
2023-05-04T03:33:48.623Z,7.80
2023-05-04T03:36:16.419Z,7.45
2023-05-04T03:38:44.374Z,8.45
2023-05-04T03:41:11.723Z,7.60
2023-05-04T03:43:40.214Z,7.10
2023-05-04T03:46:07.543Z,7.57
2023-05-04T03:48:35.290Z,6.90
2023-05-04T03:51:03.350Z,8.13
2023-05-04T03:53:30.924Z,7.50
2023-05-04T03:55:58.225Z,8.20
2023-05-04T03:58:25.523Z,7.15
2023-05-04T04:00:53.507Z,7.50
2023-05-04T04:03:21.901Z,7.38
2023-05-04T04:05:51.187Z,8.52
2023-05-04T04:08:18.923Z,6.60
2023-05-04T04:10:46.858Z,7.57
2023-05-04T04:13:14.302Z,8.63
2023-05-04T04:15:45.225Z,8.27
2023-05-04T04:18:13.233Z,7.65
2023-05-04T04:20:40.792Z,7.65
2023-05-04T04:23:08.617Z,7.70
2023-05-04T04:25:37.045Z,8.07
2023-05-04T04:28:04.631Z,7.22
2023-05-04T04:30:35.303Z,7.18
2023-05-04T04:33:03.840Z,7.45
2023-05-04T04:35:33.364Z,7.65
2023-05-04T04:38:03.358Z,6.72
2023-05-04T04:40:31.802Z,6.75
2023-05-04T04:43:00.078Z,6.70
2023-05-04T04:45:28.486Z,6.07
2023-05-04T04:47:55.760Z,6.43
2023-05-04T04:50:23.495Z,6.28
2023-05-04T04:52:51.250Z,6.38
2023-05-04T04:55:19.204Z,6.28
2023-05-04T04:57:46.668Z,6.20
2023-05-04T05:00:15.079Z,5.57
2023-05-04T05:02:43.275Z,5.30
2023-05-04T05:05:11.576Z,5.25
2023-05-04T05:07:39.040Z,5.05
2023-05-04T05:12:37.002Z,4.63
2023-05-04T05:15:05.173Z,4.25
2023-05-04T05:17:32.613Z,4.68
2023-05-04T05:20:01.622Z,4.30
2023-05-04T05:22:29.194Z,4.25
2023-05-04T05:24:57.157Z,3.58
2023-05-04T05:27:25.021Z,3.75
2023-05-04T05:29:52.516Z,4.40
2023-05-04T05:32:20.346Z,3.92
2023-05-04T05:34:48.908Z,3.97
2023-05-04T05:37:16.655Z,4.13
2023-05-04T05:39:44.638Z,3.80
2023-05-04T05:42:13.028Z,3.72
2023-05-04T05:44:41.264Z,3.35
2023-05-04T05:47:09.838Z,3.92
2023-05-04T05:49:37.359Z,4.05
2023-05-04T05:52:05.135Z,3.80
2023-05-04T05:54:34.885Z,3.75
2023-05-04T05:57:02.890Z,3.50
2023-05-04T05:59:30.864Z,3.50
2023-05-04T06:01:58.284Z,3.78
2023-05-04T06:04:26.240Z,3.90
2023-05-04T06:06:53.661Z,3.40
2023-05-04T06:09:21.856Z,3.78
2023-05-04T06:11:49.152Z,3.33
2023-05-04T06:14:16.821Z,3.50
2023-05-04T06:16:44.615Z,3.60
2023-05-04T06:19:12.149Z,3.80
2023-05-04T06:21:39.517Z,3.88
2023-05-04T06:24:07.305Z,3.15
2023-05-04T06:26:34.715Z,3.15
2023-05-04T06:29:02.261Z,3.42
2023-05-04T06:31:29.540Z,3.45
2023-05-04T06:33:58.146Z,3.53
2023-05-04T06:36:26.272Z,2.95
2023-05-04T06:38:55.982Z,3.50
2023-05-04T06:41:23.455Z,3.60
2023-05-04T06:43:51.356Z,3.05
2023-05-04T06:46:18.864Z,3.55
2023-05-04T06:48:47.531Z,3.15
2023-05-04T06:51:16.389Z,3.53
2023-05-04T06:53:45.309Z,3.50
2023-05-04T06:56:13.802Z,3.13
2023-05-04T06:58:41.341Z,3.30
2023-05-04T07:01:11.778Z,3.40
2023-05-04T07:03:39.446Z,3.08
2023-05-04T07:06:08.380Z,2.97
2023-05-04T07:08:40.748Z,3.45
2023-05-04T07:13:37.842Z,3.60
2023-05-04T07:16:07.936Z,3.20
2023-05-04T07:18:35.242Z,3.10
2023-05-04T07:21:21.738Z,3.25
2023-05-04T07:23:50.838Z,2.97
2023-05-04T07:26:18.748Z,3.20
2023-05-04T07:28:47.368Z,3.47
2023-05-04T07:31:16.252Z,3.65
2023-05-04T07:33:44.007Z,3.95
2023-05-04T07:36:12.271Z,3.40
2023-05-04T07:38:40.259Z,3.47
2023-05-04T07:41:07.662Z,3.25
2023-05-04T07:43:34.974Z,3.25
2023-05-04T07:46:03.793Z,3.25
2023-05-04T07:48:31.464Z,3.25
2023-05-04T07:50:59.707Z,3.60
2023-05-04T07:53:27.773Z,2.92
2023-05-04T07:55:57.703Z,2.78
2023-05-04T07:58:25.740Z,3.10
2023-05-04T08:00:53.858Z,3.42
2023-05-04T08:03:22.460Z,3.10
2023-05-04T08:05:50.162Z,3.22
2023-05-04T08:08:21.821Z,3.30
2023-05-04T08:10:49.660Z,3.10
2023-05-04T08:13:17.380Z,2.95
2023-05-04T08:15:46.131Z,3.42
2023-05-04T08:18:15.820Z,2.60
2023-05-04T08:20:44.057Z,2.67
2023-05-04T08:23:11.757Z,3.88
2023-05-04T08:25:39.574Z,3.08
2023-05-04T08:28:07.246Z,3.05
2023-05-04T08:30:35.115Z,2.97
2023-05-04T08:33:03.086Z,2.67
2023-05-04T08:35:31.132Z,3.40
2023-05-04T08:37:58.445Z,2.60
2023-05-04T08:40:26.216Z,2.85
2023-05-04T08:42:53.821Z,2.38
2023-05-04T08:45:23.156Z,3.05
2023-05-04T08:47:51.912Z,2.55
2023-05-04T08:50:19.909Z,2.25
2023-05-04T08:52:49.201Z,2.33
2023-05-04T08:55:18.073Z,2.42
2023-05-04T08:57:51.863Z,2.25
2023-05-04T09:00:20.630Z,2.63
2023-05-04T09:02:50.143Z,2.50
2023-05-04T09:05:18.752Z,2.60
2023-05-04T09:07:47.765Z,2.17
2023-05-04T09:10:15.245Z,2.45
2023-05-04T09:12:43.010Z,2.40
2023-05-04T09:15:21.756Z,2.65
2023-05-04T09:17:59.892Z,2.40
2023-05-04T09:20:27.738Z,2.20
2023-05-04T09:23:07.553Z,2.53
2023-05-04T09:25:47.978Z,2.50
2023-05-04T09:28:16.792Z,2.30
2023-05-04T09:30:45.037Z,2.28
2023-05-04T09:33:13.521Z,2.22
2023-05-04T09:35:41.823Z,2.35
2023-05-04T09:38:10.591Z,2.53
2023-05-04T09:40:44.420Z,2.10
2023-05-04T09:43:13.783Z,2.25
2023-05-04T09:45:42.753Z,2.60
2023-05-04T09:48:29.704Z,2.80
2023-05-04T09:50:59.815Z,2.33
2023-05-04T09:53:29.560Z,2.47
2023-05-04T09:56:13.940Z,2.50
2023-05-04T09:58:43.664Z,3.20
2023-05-04T10:01:12.268Z,2.38
2023-05-04T10:03:40.821Z,2.30
2023-05-04T10:06:12.483Z,2.72
2023-05-04T10:08:41.689Z,2.85
2023-05-04T10:11:10.064Z,3.13
2023-05-04T10:13:38.650Z,3.03
2023-05-04T10:16:30.094Z,3.00
2023-05-04T10:19:22.026Z,3.35
2023-05-04T10:22:13.990Z,2.70
2023-05-04T10:28:11.814Z,2.33
2023-05-04T10:30:40.732Z,2.60
2023-05-04T10:33:09.239Z,2.28
2023-05-04T10:35:38.373Z,2.17
2023-05-04T10:38:06.805Z,2.40
2023-05-04T10:40:38.568Z,2.20
2023-05-04T10:43:08.440Z,2.17
2023-05-04T10:45:42.428Z,2.10
2023-05-04T10:48:10.722Z,2.42
2023-05-04T10:50:51.291Z,2.50
2023-05-04T10:53:19.692Z,2.38
2023-05-04T10:55:49.071Z,2.58
2023-05-04T10:58:28.725Z,2.28
2023-05-04T11:00:56.781Z,2.35
2023-05-04T11:03:25.418Z,2.40
2023-05-04T11:05:55.137Z,2.53
2023-05-04T11:08:26.859Z,2.80
2023-05-04T11:11:03.340Z,2.40
2023-05-04T11:13:32.574Z,2.55
2023-05-04T11:16:00.826Z,2.55
2023-05-04T11:18:34.628Z,2.20
2023-05-04T11:21:03.013Z,2.53
2023-05-04T11:23:31.629Z,1.85
2023-05-04T11:25:59.645Z,2.70
2023-05-04T11:28:37.381Z,2.20
2023-05-04T11:31:19.048Z,2.53
2023-05-04T11:33:50.566Z,2.42
2023-05-04T11:36:18.763Z,2.83
2023-05-04T11:38:47.382Z,2.50
2023-05-04T11:41:15.351Z,2.63
2023-05-04T11:43:45.634Z,2.10
2023-05-04T11:46:14.575Z,2.72
2023-05-04T11:48:42.513Z,2.33
2023-05-04T11:51:10.277Z,2.38
2023-05-04T11:53:39.672Z,2.33
2023-05-04T11:56:09.361Z,2.28
2023-05-04T11:58:37.521Z,2.50
2023-05-04T12:01:05.501Z,2.22
2023-05-04T12:03:52.099Z,2.50
2023-05-04T12:06:32.742Z,2.40
2023-05-04T12:09:06.461Z,2.75
2023-05-04T12:11:35.443Z,2.55
2023-05-04T12:14:11.966Z,2.80
2023-05-04T12:16:40.436Z,2.75
2023-05-04T12:19:13.948Z,2.92
2023-05-04T12:21:54.944Z,3.08
2023-05-04T12:24:24.225Z,3.10
2023-05-04T12:26:52.440Z,2.85
2023-05-04T12:29:20.362Z,2.80
2023-05-04T12:31:47.953Z,3.30
2023-05-04T12:34:16.924Z,3.00
2023-05-04T12:36:44.860Z,2.50
2023-05-04T12:39:12.579Z,2.83
2023-05-04T12:41:40.737Z,3.00
2023-05-04T12:44:09.383Z,2.83
2023-05-04T12:46:37.723Z,3.47
2023-05-04T12:49:06.328Z,3.17
2023-05-04T12:51:33.919Z,3.15
2023-05-04T12:54:01.310Z,3.08
2023-05-04T12:56:29.001Z,2.92
2023-05-04T12:58:56.978Z,2.90
2023-05-04T13:01:24.453Z,3.30
2023-05-04T13:03:52.317Z,2.92
2023-05-04T13:06:20.374Z,3.20
2023-05-04T13:08:51.556Z,2.72
2023-05-04T13:11:20.351Z,2.80
2023-05-04T13:13:48.081Z,3.28
2023-05-04T13:16:15.549Z,2.55
2023-05-04T13:18:43.668Z,2.70
2023-05-04T13:21:11.762Z,3.10
2023-05-04T13:23:39.813Z,2.97
2023-05-04T13:26:07.374Z,2.80
2023-05-04T13:28:36.261Z,2.80
2023-05-04T13:31:10.000Z,2.90
2023-05-04T13:33:40.551Z,3.42
2023-05-04T13:36:08.072Z,2.85
2023-05-04T13:38:35.791Z,2.92
2023-05-04T13:41:03.232Z,2.80
2023-05-04T13:43:31.404Z,2.80
2023-05-04T13:46:03.763Z,3.10
2023-05-04T13:48:33.356Z,2.58
2023-05-04T13:51:04.440Z,2.97
2023-05-04T13:53:32.514Z,2.30
2023-05-04T13:55:59.638Z,2.45
2023-05-04T13:58:27.342Z,2.50
2023-05-04T14:00:56.604Z,2.60
2023-05-04T14:03:24.208Z,3.25
2023-05-04T14:05:53.030Z,2.85
2023-05-04T14:08:20.611Z,3.20
2023-05-04T14:10:48.389Z,2.75
2023-05-04T14:13:16.864Z,2.28
2023-05-04T14:15:48.207Z,2.83
2023-05-04T14:18:15.941Z,2.72
2023-05-04T14:20:43.626Z,2.40
2023-05-04T14:23:11.134Z,2.38
2023-05-04T14:25:38.970Z,2.30
2023-05-04T14:28:06.749Z,2.45
2023-05-04T14:30:34.630Z,2.25
2023-05-04T14:33:04.261Z,2.80
2023-05-04T14:35:31.977Z,2.65
2023-05-04T14:37:59.598Z,2.15
2023-05-04T14:40:27.236Z,3.00
2023-05-04T14:42:54.959Z,2.55
2023-05-04T14:45:22.964Z,2.65
2023-05-04T14:47:51.046Z,2.33
2023-05-04T14:50:18.788Z,2.42
2023-05-04T14:52:46.274Z,2.28
2023-05-04T14:55:13.779Z,2.13
2023-05-04T14:57:42.143Z,2.10
2023-05-04T15:00:11.818Z,2.65
2023-05-04T15:02:39.379Z,3.00
2023-05-04T15:05:07.515Z,2.25
2023-05-04T15:07:34.824Z,2.80
2023-05-04T15:10:02.623Z,2.50
2023-05-04T15:12:30.196Z,2.30
2023-05-04T15:14:57.467Z,2.30
2023-05-04T15:17:24.729Z,2.60
2023-05-04T15:19:52.340Z,2.63
2023-05-04T15:22:19.794Z,2.50
2023-05-04T15:24:47.478Z,2.97
2023-05-04T15:27:15.095Z,2.47
2023-05-04T15:29:42.261Z,2.20
2023-05-04T15:32:10.039Z,2.35
2023-05-04T15:34:37.830Z,2.55
2023-05-04T15:37:05.536Z,2.30
2023-05-04T15:39:33.221Z,2.50
2023-05-04T15:42:00.676Z,2.50
2023-05-04T15:44:28.778Z,2.35
2023-05-04T15:46:57.221Z,2.15
2023-05-04T15:49:25.097Z,2.33
2023-05-04T15:51:54.202Z,2.17
2023-05-04T15:54:21.941Z,2.30
2023-05-04T15:56:50.345Z,2.22
2023-05-04T15:59:18.574Z,2.22
2023-05-04T16:01:46.306Z,2.03
2023-05-04T16:04:15.106Z,2.20
2023-05-04T16:06:42.953Z,2.20
2023-05-04T16:09:10.663Z,2.50
2023-05-04T16:11:38.034Z,2.35
2023-05-04T16:14:05.730Z,2.33
2023-05-04T16:16:33.656Z,2.28
2023-05-04T16:19:01.650Z,2.42
2023-05-04T16:21:29.474Z,2.60
2023-05-04T16:23:58.565Z,2.70
2023-05-04T16:26:26.225Z,2.17
2023-05-04T16:28:54.935Z,2.30
2023-05-04T16:31:23.029Z,2.00
2023-05-04T16:33:50.630Z,1.60
2023-05-04T16:36:18.325Z,1.63
2023-05-04T16:38:45.674Z,1.40
2023-05-04T16:41:13.382Z,1.45
2023-05-04T16:43:41.080Z,1.80
2023-05-04T16:46:09.364Z,1.65
2023-05-04T16:48:38.282Z,1.30
2023-05-04T16:51:06.096Z,2.08
2023-05-04T16:53:33.606Z,1.70
2023-05-04T16:56:01.841Z,1.60
2023-05-04T16:58:29.269Z,1.65
2023-05-04T17:00:58.429Z,1.55
2023-05-04T17:03:25.889Z,1.60
2023-05-04T17:05:53.792Z,1.67
2023-05-04T17:08:21.372Z,1.67
2023-05-04T17:10:48.811Z,1.55
2023-05-04T17:13:16.392Z,1.48
2023-05-04T17:15:44.295Z,1.50
2023-05-04T17:18:11.943Z,1.30
2023-05-04T17:20:39.585Z,1.50
2023-05-04T17:23:07.156Z,1.35
2023-05-04T17:25:34.921Z,1.40
2023-05-04T17:28:02.504Z,1.02
2023-05-04T17:30:30.107Z,1.35
2023-05-04T17:32:57.883Z,0.95
2023-05-04T17:35:26.905Z,1.02
2023-05-04T17:37:58.003Z,1.55
2023-05-04T17:40:28.119Z,1.00
2023-05-04T17:42:58.862Z,1.15
2023-05-04T17:45:26.496Z,1.30
2023-05-04T17:47:54.372Z,1.00
2023-05-04T17:50:22.745Z,1.00
2023-05-04T17:52:54.513Z,1.40
2023-05-04T17:55:27.452Z,1.10
2023-05-04T17:57:55.038Z,1.10
2023-05-04T18:00:23.364Z,1.17
2023-05-04T18:02:51.350Z,0.88
2023-05-04T18:05:19.430Z,1.30
2023-05-04T18:07:47.104Z,1.10
2023-05-04T18:10:14.554Z,1.00
2023-05-04T18:12:41.964Z,1.00
2023-05-04T18:15:10.361Z,1.10
2023-05-04T18:17:41.161Z,1.10
2023-05-04T18:20:09.521Z,1.10
2023-05-04T18:22:37.249Z,1.45
2023-05-04T18:25:05.080Z,1.05
2023-05-04T18:27:34.024Z,1.20
2023-05-04T18:30:06.062Z,1.15
2023-05-04T18:32:33.965Z,1.42
2023-05-04T18:35:01.704Z,1.38
2023-05-04T18:37:33.055Z,1.20
2023-05-04T18:40:01.048Z,1.90
2023-05-04T18:42:28.985Z,1.73
2023-05-04T18:44:57.067Z,1.33
2023-05-04T18:47:25.238Z,1.23
2023-05-04T18:49:56.515Z,2.00
2023-05-04T18:52:24.136Z,1.33
2023-05-04T18:54:51.512Z,1.33
2023-05-04T18:57:19.368Z,1.33
2023-05-04T18:59:46.769Z,1.10
2023-05-04T19:02:14.214Z,1.48
2023-05-04T19:04:41.792Z,1.40
2023-05-04T19:07:10.132Z,1.85
2023-05-04T19:09:38.069Z,1.63
2023-05-04T19:12:05.795Z,1.80
2023-05-04T19:14:35.058Z,1.80
2023-05-04T19:17:02.674Z,1.48
2023-05-04T19:19:30.449Z,1.45
2023-05-04T19:21:58.900Z,1.67
2023-05-04T19:24:26.206Z,1.45
2023-05-04T19:26:54.445Z,1.35
2023-05-04T19:29:21.835Z,1.63
2023-05-04T19:31:49.649Z,1.75
2023-05-04T19:34:17.688Z,2.00
2023-05-04T19:36:45.478Z,1.60
2023-05-04T19:39:13.704Z,1.90
2023-05-04T19:41:41.377Z,1.73
2023-05-04T19:44:10.380Z,1.73
2023-05-04T19:46:38.621Z,1.70
2023-05-04T19:49:06.185Z,1.88
2023-05-04T19:51:34.160Z,1.58
2023-05-04T19:54:02.070Z,1.38
2023-05-04T19:56:32.790Z,1.92
2023-05-04T19:59:00.920Z,1.60
2023-05-04T20:01:28.450Z,1.88
2023-05-04T20:03:56.438Z,1.90
2023-05-04T20:06:24.040Z,1.67
2023-05-04T20:08:51.609Z,1.70
2023-05-04T20:11:18.950Z,1.70
2023-05-04T20:13:46.533Z,2.08
2023-05-04T20:16:14.155Z,1.70
2023-05-04T20:18:41.965Z,1.52
2023-05-04T20:21:09.571Z,1.55
2023-05-04T20:23:37.854Z,1.80
2023-05-04T20:26:06.125Z,2.00
2023-05-04T20:28:33.758Z,2.25
2023-05-04T20:31:01.569Z,2.03
2023-05-04T20:33:29.188Z,1.67
2023-05-04T20:35:56.689Z,1.75
2023-05-04T20:38:24.407Z,1.52
2023-05-04T20:40:52.746Z,1.73
2023-05-04T20:43:20.216Z,1.80
2023-05-04T20:45:48.099Z,1.70
2023-05-04T20:48:15.531Z,1.42
2023-05-04T20:50:43.199Z,1.80
2023-05-04T20:53:10.665Z,1.90
2023-05-04T20:55:40.716Z,1.80
2023-05-04T20:58:08.344Z,1.80
2023-05-04T21:00:36.600Z,1.40
2023-05-04T21:03:03.984Z,1.73
2023-05-04T21:05:31.721Z,1.73
2023-05-04T21:07:59.219Z,1.80
2023-05-04T21:10:26.870Z,1.45
2023-05-04T21:12:54.263Z,1.63
2023-05-04T21:15:21.835Z,1.15
2023-05-04T21:17:50.187Z,1.52
2023-05-04T21:20:18.099Z,2.00
2023-05-04T21:22:45.796Z,1.80
2023-05-04T21:25:13.376Z,1.50
2023-05-04T21:27:42.536Z,1.70
2023-05-04T21:30:11.534Z,2.05
2023-05-04T21:32:39.013Z,1.92
2023-05-04T21:35:07.070Z,1.65
2023-05-04T21:37:34.600Z,1.80
2023-05-04T21:40:02.407Z,1.55
2023-05-04T21:42:29.840Z,1.58
2023-05-04T21:44:58.016Z,1.35
2023-05-04T21:47:26.835Z,1.30
2023-05-04T21:49:54.746Z,1.30
2023-05-04T21:52:23.782Z,1.40
2023-05-04T21:54:51.562Z,1.38
2023-05-04T21:57:19.677Z,1.52
2023-05-04T21:59:50.107Z,1.33
2023-05-04T22:02:17.633Z,1.52
2023-05-04T22:04:45.251Z,1.45
2023-05-04T22:07:12.710Z,1.48
2023-05-04T22:09:40.947Z,1.80
2023-05-04T22:12:08.523Z,1.63
2023-05-04T22:14:35.860Z,1.45
2023-05-04T22:17:03.666Z,1.42
2023-05-04T22:19:31.425Z,1.40
2023-05-04T22:22:01.748Z,1.80
2023-05-04T22:24:29.825Z,1.35
2023-05-04T22:26:57.176Z,1.40
2023-05-04T22:29:24.572Z,1.52
2023-05-04T22:31:51.874Z,1.60
2023-05-04T22:34:19.005Z,1.10
2023-05-04T22:36:46.896Z,1.40
2023-05-04T22:39:14.821Z,1.58
2023-05-04T22:41:42.020Z,1.70
2023-05-04T22:44:09.230Z,1.65
2023-05-04T22:46:36.741Z,1.58
2023-05-04T22:49:04.770Z,1.48
2023-05-04T22:51:32.676Z,1.23
2023-05-04T22:53:59.865Z,1.77
2023-05-04T22:56:27.007Z,1.25
2023-05-04T22:58:54.121Z,1.23
2023-05-04T23:01:21.553Z,1.30
2023-05-04T23:03:49.194Z,1.40
2023-05-04T23:06:16.690Z,1.60
2023-05-04T23:08:45.583Z,1.10
2023-05-04T23:11:12.777Z,1.20
2023-05-04T23:13:39.937Z,1.15
2023-05-04T23:16:07.819Z,1.67
2023-05-04T23:21:15.132Z,1.23
2023-05-04T23:26:11.761Z,1.60
2023-05-04T23:28:39.564Z,1.60
2023-05-04T23:31:07.818Z,1.45
2023-05-04T23:33:36.559Z,1.40
2023-05-04T23:36:05.267Z,1.40
2023-05-04T23:38:33.635Z,1.10
2023-05-04T23:41:05.605Z,1.33
2023-05-04T23:43:34.296Z,1.35
2023-05-04T23:46:04.044Z,0.95
2023-05-04T23:48:32.846Z,1.50
2023-05-04T23:51:07.038Z,1.40
2023-05-04T23:53:35.672Z,1.20
2023-05-04T23:56:05.094Z,1.25
2023-05-04T23:58:33.701Z,1.23
